Home > Products > Valid Products > TAF

000
FTUS44 KOHX 231800 AAA
TAFCSV
TAF AMD
KCSV 231845Z 2319/2418 34006KT P6SM VCTS SCT030CB SCT060 BKN200
     FM240300 02002KT P6SM SCT100 BKN200
     FM240500 00000KT 4SM BR SCT100 BKN200
     FM240800 00000KT 2SM BR SCT200
     FM241300 03003KT P6SM SCT120 BKN200
     FM241500 11004KT P6SM VCTS SCT030CB BKN100 BKN200=



000
FTUS44 KOHX 231700 RRA
TAFCKV
TAF
KCKV 231740Z 2318/2418 20005KT P6SM VCTS BKN050CB BKN120 BKN250
     FM240200 32003KT P6SM SCT120 BKN250
     FM240700 00000KT 4SM BR SCT120 SCT250
     FM241300 03003KT P6SM SCT120 BKN250
     FM241500 11004KT P6SM VCTS SCT050CB BKN120 BKN250=



000
FTUS44 KOHX 231700 RRA
TAFBNA
TAF
KBNA 231740Z 2318/2418 28006KT P6SM VCTS BKN050CB BKN120 BKN250
     FM240300 32003KT P6SM SCT120 BKN250
     FM241600 04003KT P6SM VCTS SCT050CB BKN120 BKN250=



000
FTUS44 KOHX 231700 RRA
TAFCSV
TAF
KCSV 231740Z 2318/2418 34006KT P6SM VCTS BKN030CB BKN060 BKN200
     FM240300 02002KT P6SM SCT100 BKN200
     FM240500 00000KT 4SM BR SCT100 BKN200
     FM240800 00000KT 2SM BR SCT200
     FM241300 03003KT P6SM SCT120 BKN200
     FM241500 11004KT P6SM VCTS SCT030CB BKN100 BKN200=



000
FTUS44 KOHX 231600 AAE
TAFCSV
TAF AMD
KCSV 231647Z 2317/2412 VRB03KT P6SM VCTS SCT015 SCT025CB BKN040
     FM240300 00000KT 5SM BR SKC
     FM240900 00000KT 2SM BR SCT020=



000
FTUS44 KOHX 231600 AAD
TAFCSV
TAF AMD
KCSV 231643Z 2317/2412 30003KT P6SM VCTS SCT015 BKN025CB
     FM240300 00000KT 5SM BR SKC
     FM240900 00000KT 2SM BR SCT020=



000
FTUS44 KOHX 231400 AAC
TAFCSV
TAF AMD
KCSV 231406Z 2314/2412 30003KT P6SM SCT035 BKN100
     FM231800 31006KT P6SM VCTS BKN040CB BKN100
     FM240300 00000KT 5SM BR SKC
     FM240900 00000KT 2SM BR SCT020=



000
FTUS44 KOHX 231200 AAB
TAFCSV
TAF AMD
KCSV 231243Z 2313/2412 28005KT 5SM -SHRA VCTS SCT020 BKN040CB
      TEMPO 2313/2315 2SM TSRA BR BKN025CB OVC035
     FM231500 30002KT P6SM SCT035 BKN100
     FM231800 31006KT P6SM VCTS BKN040CB BKN100
     FM240300 00000KT 5SM BR SKC
     FM240900 00000KT 2SM BR SCT020=



000
FTUS44 KOHX 231200 AAA
TAFCSV
TAF AMD
KCSV 231216Z 2312/2412 00000KT 5SM -SHRA VCTS SCT020 BKN040CB
      TEMPO 2312/2315 3SM TSRA BR BKN025CB OVC035
     FM231500 30002KT P6SM SCT035 BKN100
     FM231800 31006KT P6SM VCTS BKN040CB BKN100
     FM240300 00000KT 5SM BR SKC
     FM240900 00000KT 2SM BR SCT020=



000
FTUS44 KOHX 231100 CCA
TAFCSV
TAF COR
KCSV 231144Z 2312/2412 00000KT 5SM -SHRA VCTS SCT020 BKN040CB
      TEMPO 2312/2313 3SM TSRA BR BKN025CB OVC035
     FM231400 30002KT P6SM SCT035 BKN100
     FM231700 31006KT P6SM VCTS BKN040CB BKN100
     FM240300 00000KT 5SM BR SKC
     FM240900 00000KT 2SM BR SCT020=



000
FTUS44 KOHX 231100
TAFBNA
TAF
KBNA 231140Z 2312/2412 27004KT P6SM SCT040 BKN100
     FM231700 28006KT P6SM VCTS BKN050CB BKN250
     FM240000 32003KT P6SM SCT150
     FM240900 25003KT 5SM BR SCT150=



000
FTUS44 KOHX 231100
TAFCKV
TAF
KCKV 231140Z 2312/2412 24004KT P6SM VCSH SCT040 BKN090
     FM231600 26006KT P6SM VCTS BKN050CB BKN150
     FM240000 32003KT P6SM SCT150
     FM240700 25003KT 5SM BR SCT150
     FM241000 25003KT 2SM BR SCT150=



000
FTUS44 KOHX 231100
TAFCSV
TAF
KCSV 231140Z 2312/2412 00000KT P6SM VCTS SCT040CB BKN150
      TEMPO 2312/2313 2SM TSRA BR BKN020CB OVC035
     FM231300 30002KT P6SM SKC
     FM231700 31006KT P6SM SCT035
     FM240400 00000KT 5SM BR SKC=



000
FTUS44 KOHX 230900 AAB
TAFCSV
TAF AMD
KCSV 230956Z 2310/2406 00000KT 5SM BR VCTS SCT040CB BKN150
      TEMPO 2310/2313 2SM TSRA BR BKN020CB OVC035
     FM231300 30002KT P6SM SKC
     FM231700 31006KT P6SM SCT035 PROB30 2319/2323 5SM -SHRA OVC035
     FM240400 00000KT 5SM BR SKC=



000
FTUS44 KOHX 230900 AAA
TAFBNA
TAF AMD
KBNA 230934Z 2310/2406 00000KT P6SM VCTS SCT025 BKN045CB
      TEMPO 2310/2312 02010G20KT 3SM TSRA BR BKN025CB OVC045
     FM231500 27005KT P6SM SCT035 BKN250=



000
FTUS44 KOHX 230900 AAB
TAFCKV
TAF AMD
KCKV 230932Z 2310/2406 18003KT P6SM VCTS SCT020 BKN040CB BKN090
      TEMPO 2310/2312 01010G20KT 4SM TSRA BR BKN020CB OVC040
     FM231500 24004KT P6SM FEW035 BKN250=



000
FTUS44 KOHX 230800 AAA
TAFCKV
TAF AMD
KCKV 230847Z 2309/2406 18003KT P6SM VCTS BKN050CB BKN090
      TEMPO 2309/2312 4SM BR
     FM231700 24004KT P6SM FEW035 BKN250=



000
FTUS44 KOHX 230800 AAA
TAFCSV
TAF AMD
KCSV 230825Z 2308/2406 00000KT 5SM BR VCTS SCT040CB BKN150
      TEMPO 2309/2313 2SM BR
     FM231300 30002KT P6SM SKC
     FM231700 31006KT P6SM SCT035 PROB30 2319/2323 5SM -SHRA OVC035
     FM240400 00000KT 5SM BR SKC=



000
FTUS44 KOHX 230500
TAFCKV
TAF
KCKV 230522Z 2306/2406 18003KT P6SM SKC
      TEMPO 2309/2312 4SM BR
     FM231700 24004KT P6SM FEW035 BKN250=



000
FTUS44 KOHX 230500
TAFCSV
TAF
KCSV 230522Z 2306/2406 00000KT 5SM BR VCSH FEW040 BKN150
      TEMPO 2309/2313 2SM BR
     FM231300 30002KT P6SM SKC
     FM231700 31006KT P6SM SCT035 PROB30 2319/2323 5SM -SHRA OVC035
     FM240400 00000KT 5SM BR SKC=



000
FTUS44 KOHX 230500
TAFBNA
TAF
KBNA 230522Z 2306/2406 00000KT P6SM SKC
     FM231700 27005KT P6SM SCT035 BKN250=



000
FTUS44 KOHX 230400 AAA
TAFCSV
TAF AMD
KCSV 230439Z 2305/2324 00000KT 5SM BR SKC
      TEMPO 2309/2313 2SM BR
     FM231500 32005KT P6SM FEW030=



000
FTUS44 KOHX 222300
TAFCSV
TAF
KCSV 222322Z 2300/2324 24004KT P6SM SKC
     FM230200 00000KT P6SM SKC
      TEMPO 2309/2313 2SM BR
     FM231500 32005KT P6SM FEW030=



000
FTUS44 KOHX 222300
TAFCKV
TAF
KCKV 222322Z 2300/2324 23005KT P6SM SCT045 SCT060
     FM230300 00000KT P6SM SCT250
      TEMPO 2309/2312 4SM BR
     FM231900 22005KT P6SM SCT040=



000
FTUS44 KOHX 222300
TAFBNA
TAF
KBNA 222322Z 2300/2324 25005KT P6SM SCT050 BKN250=



000
FTUS44 KOHX 221700 RRB
TAFCKV
TAF
KCKV 221740Z 2218/2318 30007KT P6SM SCT040 BKN250
     FM230200 23004KT P6SM SCT250
     FM230900 25003KT 4SM BR SCT250
     FM231500 26007KT P6SM VCTS SCT050CB BKN120 BKN250=



000
FTUS44 KOHX 221700 RRB
TAFBNA
TAF
KBNA 221740Z 2218/2318 28006KT P6SM BKN050 BKN250
     FM230200 23004KT P6SM SCT250
     FM231500 26007KT P6SM SCT050 BKN120 BKN250=



000
FTUS44 KOHX 221700 RRB
TAFCSV
TAF
KCSV 221740Z 2218/2318 29007KT P6SM SCT040 BKN200
     FM230200 00000KT P6SM SCT200
     FM230800 00000KT 4SM BR SCT200
      TEMPO 2310/2312 2SM BR SCT200
     FM231500 28004KT P6SM VCTS SCT040CB BKN100 BKN250=



000
FTUS44 KOHX 221700 RRA
TAFCKV
TAF
KCKV 221740Z 2218/2318 30007KT P6SM SCT040 BKN250
     FM230200 23004KT P6SM SCT250
     FM230900 25003KT 4SM BR SCT250
     FM231500 26007KT P6SM VCTS SCT050CB BKN120 BKN250=



000
FTUS44 KOHX 221700 RRA
TAFCSV
TAF
KCSV 221740Z 2218/2318 29007KT P6SM SCT040 BKN200
     FM230200 00000KT P6SM SCT200
     FM230800 00000KT 4SM BR SCT200
      TEMPO 2310/2312 2SM BR SCT200
     FM231500 28004KT P6SM VCTS SCT040CB BKN100 BKN250=



000
FTUS44 KOHX 221700 RRA
TAFBNA
TAF
KBNA 221740Z 2218/2318 28006KT P6SM BKN050 BKN250
     FM230200 23004KT P6SM SCT250
     FM231500 26007KT P6SM SCT050 BKN120 BKN250=



000
FTUS44 KOHX 221700 AAB
TAFBNA
TAF AMD
KBNA 221702Z 2217/2312 28006KT P6SM BKN050 BKN250
     FM230000 VRB03KT P6SM SCT250
     FM231100 VRB02KT 5SM BR SCT250=



000
FTUS44 KOHX 221600 AAA
TAFBNA
TAF AMD
KBNA 221604Z 2216/2312 28010G20KT P6SM SCT040 BKN250
     FM230000 VRB03KT P6SM SCT250
     FM231100 VRB02KT 5SM BR SCT250=



000
FTUS44 KOHX 221100
TAFCKV
TAF
KCKV 221125Z 2212/2312 22006KT P6SM SKC
     FM230000 VRB03KT P6SM SCT250
     FM230900 VRB02KT 3SM BR SCT250=



000
FTUS44 KOHX 221100
TAFBNA
TAF
KBNA 221125Z 2212/2312 19004KT P6SM FEW130 SCT200
     FM230000 VRB03KT P6SM SCT250
     FM231100 VRB02KT 5SM BR SCT250=



000
FTUS44 KOHX 221100
TAFCSV
TAF
KCSV 221125Z 2212/2312 00000KT 6SM BR SKC
      TEMPO 2212/2214 3SM BR SKC
     FM221400 28006KT P6SM SCT035 SCT150
     FM222300 VRB02KT P6SM SCT250
     FM230400 00000KT 4SM BR SCT250
     FM230900 00000KT 2SM BR SCT250=



000
FTUS44 KOHX 221000 AAA
TAFCSV
TAF AMD
KCSV 221014Z 2210/2306 00000KT 4SM BR SKC
      TEMPO 2210/2212 2SM BR
     FM221300 28005KT P6SM FEW040
     FM222300 VRB02KT P6SM SCT250=



000
FTUS44 KOHX 220500
TAFCKV
TAF
KCKV 220525Z 2206/2306 00000KT P6SM SKC
      TEMPO 2210/2212 4SM BR
     FM221300 26007KT P6SM FEW040
     FM222300 VRB02KT P6SM SCT250=



000
FTUS44 KOHX 220500
TAFBNA
TAF
KBNA 220525Z 2206/2306 00000KT P6SM SKC
     FM221300 26007KT P6SM FEW040 SCT250
     FM222300 VRB02KT P6SM SCT250=



000
FTUS44 KOHX 220500
TAFCSV
TAF
KCSV 220525Z 2206/2306 00000KT P6SM SKC
      TEMPO 2210/2212 4SM BR
     FM221300 28005KT P6SM FEW040
     FM222300 VRB02KT P6SM SCT250=



000
FTUS44 KOHX 212300
TAFCKV
TAF
KCKV 212336Z 2200/2224 VRB03KT P6SM SKC
      TEMPO 2210/2212 4SM BR
     FM221300 26007KT P6SM FEW040=



000
FTUS44 KOHX 212300
TAFCSV
TAF
KCSV 212336Z 2200/2224 29003KT P6SM SKC
      TEMPO 2210/2212 4SM BR
     FM221300 28005KT P6SM FEW040=



000
FTUS44 KOHX 212300
TAFBNA
TAF
KBNA 212336Z 2200/2224 VRB03KT P6SM SKC
     FM221300 26007KT P6SM FEW040=



000
FTUS44 KOHX 211700
TAFCSV
TAF
KCSV 211723Z 2118/2218 30010KT P6SM SCT030
     FM220000 00000KT P6SM SKC=



000
FTUS44 KOHX 211700
TAFCKV
TAF
KCKV 211723Z 2118/2218 29009KT P6SM SCT040
     FM220000 00000KT P6SM SKC=



000
FTUS44 KOHX 211700
TAFBNA
TAF
KBNA 211723Z 2118/2218 26009KT P6SM SCT040
     FM220000 00000KT P6SM SKC=



000
FTUS44 KOHX 211100
TAFCSV
TAF
KCSV 211129Z 2112/2212 27005KT P6SM SCT030=



000
FTUS44 KOHX 211100
TAFBNA
TAF
KBNA 211129Z 2112/2212 25007KT P6SM SCT040=



000
FTUS44 KOHX 211100
TAFCKV
TAF
KCKV 211129Z 2112/2212 25009KT P6SM SCT040=



000
FTUS44 KOHX 211000 AAB
TAFCSV
TAF AMD
KCSV 211003Z 2110/2206 21003KT P6SM SKC
      TEMPO 2110/2112 2SM BR SCT250
     FM211400 26005KT P6SM SCT030=



000
FTUS44 KOHX 210900 AAB
TAFCKV
TAF AMD
KCKV 210944Z 2110/2206 18003KT P6SM SCT250
     FM211100 16002KT 4SM BR SCT250
      TEMPO 2111/2112 1SM BR SCT250
     FM211400 25006KT P6SM SCT050 SCT250=



000
FTUS44 KOHX 210900 AAB
TAFBNA
TAF AMD
KBNA 210943Z 2110/2206 19002KT P6SM SCT250
     FM211100 19002KT 4SM BR SCT250
      TEMPO 2111/2112 2SM BR
     FM211600 25007KT P6SM SCT050 SCT250=



000
FTUS44 KOHX 210800 AAA
TAFCSV
TAF AMD
KCSV 210835Z 2109/2206 00000KT P6SM SCT250
     FM211000 00000KT 4SM BR SCT250
      TEMPO 2110/2112 1SM BR SCT250
     FM211400 26005KT P6SM SCT030=



000
FTUS44 KOHX 210700 AAA
TAFCKV
TAF AMD
KCKV 210713Z 2107/2206 18003KT P6SM SCT250
     FM210900 16002KT 4SM BR SCT250
      TEMPO 2109/2112 1SM BR SCT250
     FM211400 25006KT P6SM SCT050 SCT250=



000
FTUS44 KOHX 210700 AAA
TAFBNA
TAF AMD
KBNA 210712Z 2107/2206 19002KT P6SM SCT250
     FM210900 19002KT 4SM BR SCT250
      TEMPO 2110/2112 2SM BR
     FM211600 25007KT P6SM SCT050 SCT250=



000
FTUS44 KOHX 210500
TAFCKV
TAF
KCKV 210520Z 2106/2206 16003KT P6SM BKN250
     FM210700 16002KT 4SM BR SCT250
      TEMPO 2107/2110 1SM BR SCT250
     FM211400 25006KT P6SM SCT050 SCT250=



000
FTUS44 KOHX 210500
TAFBNA
TAF
KBNA 210520Z 2106/2206 16003KT P6SM OVC150
     FM210700 16002KT 4SM BR BKN250
      TEMPO 2109/2112 2SM BR
     FM211600 25007KT P6SM SCT050 SCT250=



000
FTUS44 KOHX 210500
TAFCSV
TAF
KCSV 210520Z 2106/2206 14003KT P6SM OVC250
     FM210800 00000KT 4SM BR SCT250
     FM211000 00000KT 2SM BR SCT250
      TEMPO 2110/2112 1SM BR SCT250
     FM211400 26005KT P6SM SCT030=



000
FTUS44 KOHX 210000 AAA
TAFCKV
TAF AMD
KCKV 210055Z 2101/2124 16004KT P6SM VCTS SCT060CB OVC250
      TEMPO 2101/2102 3SM -TSRA BKN060CB BKN100 OVC250
     FM210300 24006KT P6SM SCT040
     FM210500 00000KT P6SM SCT250
      TEMPO 2109/2112 3SM BR
     FM211600 25008KT P6SM SCT050=



000
FTUS44 KOHX 210000 AAB
TAFBNA
TAF AMD
KBNA 210053Z 2101/2124 18006KT P6SM VCTS BKN050CB BKN100 OVC250
     FM210130 25007KT P6SM SCT050 BKN100 OVC250
     FM210500 00000KT P6SM SCT250
      TEMPO 2109/2112 4SM BR
     FM211600 25007KT P6SM SCT050=



000
FTUS44 KOHX 202300 AAA
TAFBNA
TAF AMD
KBNA 202333Z 2100/2124 34010G16KT P6SM SCT035 BKN070
      TEMPO 2100/2103 VRB15G25KT 1SM +TSRA BKN025CB
     FM210300 25007KT P6SM SCT040
     FM210500 00000KT P6SM SCT250
      TEMPO 2109/2112 4SM BR
     FM211600 25007KT P6SM SCT050=



000
FTUS44 KOHX 202300
TAFCKV
TAF
KCKV 202322Z 2100/2124 33010G16KT P6SM SCT040 BKN070
      TEMPO 2100/2102 VRB15G25KT 3SM TSRA BKN030CB
     FM210300 24006KT P6SM SCT040
     FM210500 00000KT P6SM SCT250
      TEMPO 2109/2112 3SM BR
     FM211600 25008KT P6SM SCT050=



000
FTUS44 KOHX 202300
TAFCSV
TAF
KCSV 202322Z 2100/2124 26007KT P6SM SCT040 BKN070
      TEMPO 2100/2104 VRB15G25KT 2SM +TSRA BKN025CB
     FM210500 00000KT P6SM SCT250
     FM210800 00000KT 4SM BR SCT250
     FM211000 00000KT 1 1/2SM BR SCT250
     FM211300 00000KT P6SM SCT015
     FM211600 27006KT P6SM SCT040=



000
FTUS44 KOHX 202300
TAFBNA
TAF
KBNA 202322Z 2100/2124 34010G16KT P6SM SCT040 BKN070
      TEMPO 2100/2103 VRB20G30KT 3SM TSRA BKN030CB
     FM210300 25007KT P6SM SCT040
     FM210500 00000KT P6SM SCT250
      TEMPO 2109/2112 4SM BR
     FM211600 25007KT P6SM SCT050=



000
FTUS44 KOHX 202200 AAE
TAFCKV
TAF AMD
KCKV 202254Z 2023/2118 26008KT P6SM SCT030 BKN070
      TEMPO 2023/2101 VRB20G30KT 2SM +TSRA BKN015CB
     FM210100 00000KT P6SM SCT250=



000
FTUS44 KOHX 202200 AAD
TAFBNA
TAF AMD
KBNA 202240Z 2023/2118 32010G16KT P6SM SCT040 BKN070
      TEMPO 2023/2101 VRB20G30KT 3SM TSRA BKN030CB
     FM210100 25007KT P6SM SCT040
     FM210400 00000KT P6SM SCT250=



000
FTUS44 KOHX 202100 AAD
TAFCKV
TAF AMD
KCKV 202156Z 2022/2118 26008KT P6SM SCT030 BKN070
      TEMPO 2022/2024 VRB20G30KT 2SM +TSRA BKN025CB
     FM210000 00000KT P6SM SCT250=



000
FTUS44 KOHX 202100 AAB
TAFCKV
TAF AMD
KCKV 202128Z 2021/2118 26008KT P6SM VCTS SCT040CB
      TEMPO 2021/2022 VRB25G50KT 2SM +TSRA BKN030CB
     FM210000 00000KT P6SM SCT250=



000
FTUS44 KOHX 202100 AAC
TAFCKV
TAF AMD
KCKV 202128Z 2021/2118 26008KT P6SM VCTS SCT040CB
      TEMPO 2021/2022 VRB25G50KT 1SM +TSRA BKN030CB
     FM210000 00000KT P6SM SCT250=



000
FTUS44 KOHX 202000 AAA
TAFCKV
TAF AMD
KCKV 202029Z 2020/2118 26008KT P6SM VCTS SCT040CB
     FM210000 00000KT P6SM SCT250=



000
FTUS44 KOHX 202000 AAC
TAFBNA
TAF AMD
KBNA 202028Z 2020/2118 23010G16KT P6SM VCTS SCT050CB
      TEMPO 2020/2022 VRB15G25KT 3SM TSRA BKN040CB
     FM202200 25007KT P6SM SCT040
     FM210100 00000KT P6SM SCT250=



000
FTUS44 KOHX 202000 AAA
TAFCSV
TAF AMD
KCSV 202019Z 2020/2118 26007KT P6SM VCTS SCT030CB
      TEMPO 2021/2024 VRB20G30KT 1SM +TSRA BKN025CB
     FM210200 00000KT P6SM SCT250
     FM210700 00000KT 4SM BR SCT250
     FM210900 00000KT 1 1/2SM BR SCT250
     FM211300 00000KT P6SM BKN015=



    US Dept of Commerce
    National Oceanic and Atmospheric Administration
    National Weather Service
    1325 East West Highway
    Silver Spring, MD 20910
    Page Author: NWS Internet Services Team
Disclaimer
Information Quality
Credits
Glossary
Privacy Policy
Freedom of Information Act (FOIA)
About Us
Career Opportunities